Terminal Aerodrome Forecast
Issued by NWS Greer, SC

Home | Current Version | Previous Version | Text Only | Print | Product List | Glossary On
Versions: 1 2 3 4 5 6 7 8 9 10 11 12 13 14 15 16 17 18 19 20 21 22 23 24 25 26 27 28 29 30 31 32 33 34 35 36 37
000
FTUS42 KGSP 190539
TAFAVL
TAF
KAVL 190539Z 1906/2006 17005KT P6SM -SHRA OVC025
     FM190700 15005KT P6SM VCSH OVC015
     FM190900 15004KT 5SM BR VCSH OVC009
     FM191400 15005KT 4SM BR VCSH BKN010
     FM191500 15005KT 4SM BR BKN012 PROB30 1915/1918 2SM -SHRA BR
      OVC010
     FM200000 15004KT 6SM BR BKN008
     FM200500 15004KT 2SM BR BKN012=

USA.gov is the U.S. government's official web portal to all federal, state and local government web resources and services.